St. Andrews — WDC2864 — position and weather

sailwx.info

Track history (hours):
 
Tides and Currents Weather Stations Pressure Air Temp Water Temp Dewpoint Dewpoint Depression Visibility Wind Speed Wind Dir Waves Ship Positions

St. Andrews

Owner: Harley Marine Services, Inc, Seattle, WA. More information available from US FCC via Universal Licensing System and Coast Guard Vessel Documentation Center.

Last reported at 2018-Feb-19 01:30 UTC. Time now 2018-Feb-19 01:54 UTC.
Position N 40°40' W 074°09'.

Length 24 m.

Type: Tug. MMSI: 366998820.

Date/timePositionNaut miles runAvg speedWind from/ knotsBaromVisibWave heightAir tempDewpointWater temp
2018-Feb-19 01:30N 40°40' W 074°09'0 0.0
2018-Feb-19 01:00N 40°40' W 074°09'0 0.0
2018-Feb-19 00:30N 40°40' W 074°09'0 0.0
2018-Feb-19 00:00N 40°40' W 074°09'0 0.0
2018-Feb-18 23:30N 40°40' W 074°09'0 0.0
2018-Feb-18 23:00N 40°40' W 074°09'0 0.0
2018-Feb-18 22:30N 40°40' W 074°09'1 2.7
2018-Feb-18 22:00N 40°39' W 074°08'3 6.7
2018-Feb-18 21:30N 40°40' W 074°04'1 2.3
2018-Feb-18 21:00N 40°41' W 074°03'4 8.2
2018-Feb-18 20:29N 40°39' W 074°08'3 6.5
2018-Feb-18 20:00N 40°38' W 074°12'0 0.0
2018-Feb-18 19:30N 40°38' W 074°12'0 0.0
2018-Feb-18 19:00N 40°38' W 074°12'2 3.7
2018-Feb-18 18:30N 40°37' W 074°12'1 1.2
2018-Feb-18 18:00N 40°36' W 074°12'2 3.2
2018-Feb-18 17:27N 40°38' W 074°12'0 0.0
2018-Feb-18 17:00N 40°38' W 074°12'0 0.2
2018-Feb-18 16:25N 40°38' W 074°12'2 5.3
2018-Feb-18 16:00N 40°39' W 074°09'5 9.0
2018-Feb-18 15:30N 40°40' W 074°04'2 4.4
2018-Feb-18 15:00N 40°40' W 074°01'1 1.3
2018-Feb-18 14:30N 40°40' W 074°00'0 0.0
2018-Feb-18 14:00N 40°40' W 074°00'0 0.0
2018-Feb-18 13:30N 40°40' W 074°00'0 0.0
2018-Feb-18 13:00N 40°40' W 074°00'0 0.0
2018-Feb-18 12:30N 40°40' W 074°00'0 0.1
2018-Feb-18 12:00N 40°40' W 074°00'0 0.0
2018-Feb-18 11:30N 40°40' W 074°00'0 0.0
2018-Feb-18 10:59N 40°40' W 074°00'0 0.0
2018-Feb-18 10:30N 40°40' W 074°00'0 0.0
2018-Feb-18 10:00N 40°40' W 074°00'0 0.0
2018-Feb-18 09:30N 40°40' W 074°00'0 0.0
2018-Feb-18 09:00N 40°40' W 074°00'0 0.0
2018-Feb-18 08:30N 40°40' W 074°00'0 0.0
2018-Feb-18 08:00N 40°40' W 074°00'0 0.0
2018-Feb-18 07:30N 40°40' W 074°00'0 0.0
2018-Feb-18 07:00N 40°40' W 074°00'0 0.0
2018-Feb-18 06:30N 40°40' W 074°00'0 0.0
2018-Feb-18 06:00N 40°40' W 074°00'0 0.0
2018-Feb-18 05:30N 40°40' W 074°00'0 0.0
2018-Feb-18 05:00N 40°40' W 074°00'0 0.0
2018-Feb-18 04:28N 40°40' W 074°00'0 0.0
2018-Feb-18 04:00N 40°40' W 074°00'0 0.0
2018-Feb-18 03:30N 40°40' W 074°00'0 0.0
2018-Feb-18 03:00N 40°40' W 074°00'0 0.0
2018-Feb-18 02:30N 40°40' W 074°00'0 0.0
2018-Feb-18 02:00N 40°40' W 074°00'0 0.0
2018-Feb-18 01:30N 40°40' W 074°00'0 0.0
2018-Feb-18 01:00N 40°40' W 074°00'0 0.0
2018-Feb-18 00:30N 40°40' W 074°00'1 1.0
2018-Feb-18 00:00N 40°40' W 074°01'4 7.0
2018-Feb-17 23:30N 40°37' W 074°03'4 7.6
2018-Feb-17 23:00N 40°34' W 073°59'3 6.5
2018-Feb-17 22:29N 40°34' W 073°54'3 6.4
2018-Feb-17 22:00N 40°35' W 073°51'4 6.6
2018-Feb-17 21:28N 40°37' W 073°47'10 1.1
2018-Feb-17 11:59N 40°34' W 073°59'3 5.2
2018-Feb-17 11:30N 40°35' W 074°02'3 5.6
2018-Feb-17 11:00N 40°38' W 074°03'3 5.4
2018-Feb-17 10:30N 40°41' W 074°03'0 0.0
2018-Feb-17 10:00N 40°41' W 074°03'0 0.0
2018-Feb-17 09:30N 40°41' W 074°03'0 0.0
2018-Feb-17 09:00N 40°41' W 074°03'0 0.0
2018-Feb-17 08:30N 40°41' W 074°03'0 0.0
2018-Feb-17 08:00N 40°41' W 074°03'0 0.0
2018-Feb-17 07:30N 40°41' W 074°03'0 0.0
2018-Feb-17 07:00N 40°41' W 074°03'0 0.0
2018-Feb-17 06:30N 40°41' W 074°03'0 0.0
2018-Feb-17 06:00N 40°41' W 074°03'0 0.0
2018-Feb-17 05:30N 40°41' W 074°03'0 0.0
2018-Feb-17 05:00N 40°41' W 074°03'0 0.0
2018-Feb-17 04:30N 40°41' W 074°03'0 0.0
2018-Feb-17 04:00N 40°41' W 074°03'0 0.1
2018-Feb-17 03:30N 40°41' W 074°03'0 0.0
2018-Feb-17 03:00N 40°41' W 074°03'0 0.0
2018-Feb-17 02:30N 40°41' W 074°03'0 0.0
2018-Feb-17 02:00N 40°41' W 074°03'0 0.0
2018-Feb-17 01:30N 40°41' W 074°03'0 0.0
2018-Feb-17 01:00N 40°41' W 074°03'0 0.0
2018-Feb-17 00:30N 40°41' W 074°03'0 0.6
2018-Feb-17 00:00N 40°41' W 074°03'2 4.4
2018-Feb-16 23:30N 40°39' W 074°05'2 4.5
2018-Feb-16 23:00N 40°39' W 074°08'1 2.8
2018-Feb-16 22:30N 40°40' W 074°08'3 5.3
2018-Feb-16 22:00N 40°42' W 074°07'0 0.2
2018-Feb-16 21:30N 40°42' W 074°07'0 0.0
2018-Feb-16 21:00N 40°42' W 074°07'0 0.0
2018-Feb-16 20:30N 40°42' W 074°07'0 0.0
2018-Feb-16 20:00N 40°42' W 074°07'0 0.0
2018-Feb-16 19:30N 40°42' W 074°07'0 0.0
2018-Feb-16 19:00N 40°42' W 074°07'0 0.0
2018-Feb-16 18:30N 40°42' W 074°07'0 0.0
2018-Feb-16 18:00N 40°42' W 074°07'0 0.0
2018-Feb-16 17:30N 40°42' W 074°07'0 0.0
2018-Feb-16 17:00N 40°42' W 074°07'0 0.0
2018-Feb-16 16:30N 40°42' W 074°07'0 0.0
2018-Feb-16 16:00N 40°42' W 074°07'0 0.0
2018-Feb-16 15:30N 40°42' W 074°07'0 0.0
2018-Feb-16 15:00N 40°42' W 074°07'0 0.0
2018-Feb-16 14:30N 40°42' W 074°07'0 0.0
2018-Feb-16 13:58N 40°42' W 074°07'0 0.1
2018-Feb-16 13:30N 40°42' W 074°07'0 0.0
2018-Feb-16 13:00N 40°42' W 074°07'2 3.9
2018-Feb-16 12:30N 40°41' W 074°08'2 4.2
2018-Feb-16 12:00N 40°39' W 074°06'2 4.0
2018-Feb-16 11:30N 40°39' W 074°04'3 5.6
2018-Feb-16 10:59N 40°40' W 074°00'0 0.0
2018-Feb-16 10:30N 40°40' W 074°00'1 1.1
2018-Feb-16 10:00N 40°40' W 074°01'3 6.0
2018-Feb-16 09:30N 40°39' W 074°05'1 1.9
2018-Feb-16 09:00N 40°39' W 074°06'0 0.0
2018-Feb-16 08:30N 40°39' W 074°06'0 0.0
2018-Feb-16 08:00N 40°39' W 074°06'0 0.0
2018-Feb-16 07:30N 40°39' W 074°06'0 0.0
2018-Feb-16 07:00N 40°39' W 074°06'0 0.0
2018-Feb-16 06:29N 40°39' W 074°06'0 0.0
2018-Feb-16 05:59N 40°39' W 074°06'0 0.0
2018-Feb-16 05:30N 40°39' W 074°06'0 0.0
2018-Feb-16 05:00N 40°39' W 074°06'0 0.0
2018-Feb-16 04:30N 40°39' W 074°06'0 0.0
2018-Feb-16 04:00N 40°39' W 074°06'0 0.0
2018-Feb-16 03:30N 40°39' W 074°06'0 0.0
2018-Feb-16 03:00N 40°39' W 074°06'0 0.0
2018-Feb-16 02:30N 40°39' W 074°06'0 0.0
2018-Feb-16 02:00N 40°39' W 074°06'3 6.3
2018-Feb-16 01:30N 40°41' W 074°03'0 0.3
2018-Feb-16 01:00N 40°41' W 074°03'0 0.0
2018-Feb-16 00:30N 40°41' W 074°03'0 0.1
2018-Feb-16 00:00N 40°41' W 074°03'0 0.1
2018-Feb-15 23:30N 40°41' W 074°03'2 3.7
2018-Feb-15 23:00N 40°40' W 074°01'1 1.2
2018-Feb-15 22:30N 40°40' W 074°00'0 0.0
2018-Feb-15 22:00N 40°40' W 074°00'0 0.0
2018-Feb-15 21:30N 40°40' W 074°00'0 0.0
2018-Feb-15 21:00N 40°40' W 074°00'0 0.0
2018-Feb-15 20:30N 40°40' W 074°00'0 0.0
2018-Feb-15 20:00N 40°40' W 074°00'0 0.0
2018-Feb-15 19:30N 40°40' W 074°00'0 0.0
2018-Feb-15 19:00N 40°40' W 074°00'0 0.0
2018-Feb-15 18:30N 40°40' W 074°00'0 0.0
2018-Feb-15 18:00N 40°40' W 074°00'0 0.0
2018-Feb-15 17:30N 40°40' W 074°00'0 0.0
2018-Feb-15 17:00N 40°40' W 074°00'0 0.0
2018-Feb-15 16:30N 40°40' W 074°00'0 0.0
2018-Feb-15 16:00N 40°40' W 074°00'2 3.2
2018-Feb-15 15:30N 40°41' W 074°02'2 3.2
2018-Feb-15 15:00N 40°40' W 074°00'0 0.0
2018-Feb-15 14:30N 40°40' W 074°00'2 4.4
2018-Feb-15 14:00N 40°41' W 074°03'0 0.2
2018-Feb-15 13:30N 40°41' W 074°03'0 0.0
2018-Feb-15 13:00N 40°41' W 074°03'0 0.0
2018-Feb-15 12:30N 40°41' W 074°03'1 2.8
2018-Feb-15 12:00N 40°40' W 074°04'3 5.4
2018-Feb-15 11:30N 40°39' W 074°07'0 0.0
2018-Feb-15 11:00N 40°39' W 074°07'0 0.0
2018-Feb-15 10:28N 40°39' W 074°07'0 0.0
2018-Feb-15 10:00N 40°39' W 074°07'3 5.0
2018-Feb-15 09:30N 40°39' W 074°10'1 2.4
2018-Feb-15 09:00N 40°38' W 074°12'0 0.0
2018-Feb-15 08:30N 40°38' W 074°12'1 2.1
2018-Feb-15 08:00N 40°39' W 074°11'4 8.7
2018-Feb-15 07:30N 40°39' W 074°05'4 7.4
2018-Feb-15 07:00N 40°40' W 074°00'0 0.3
2018-Feb-15 06:30N 40°40' W 074°00'0 0.1
2018-Feb-15 06:00N 40°40' W 074°00'0 0.0
2018-Feb-15 05:30N 40°40' W 074°00'0 0.0
2018-Feb-15 05:00N 40°40' W 074°00'0 0.0
2018-Feb-15 04:30N 40°40' W 074°00'0 0.0
2018-Feb-15 04:00N 40°40' W 074°00'0 0.0
2018-Feb-15 03:30N 40°40' W 074°00'0 0.0
2018-Feb-15 03:00N 40°40' W 074°00'0 0.0
2018-Feb-15 02:30N 40°40' W 074°00'0 0.0
2018-Feb-15 02:00N 40°40' W 074°00'0 0.0
2018-Feb-15 01:30N 40°40' W 074°00'0 0.0
2018-Feb-15 01:00N 40°40' W 074°00'0 0.0
2018-Feb-15 00:30N 40°40' W 074°00'0 0.0
2018-Feb-15 00:00N 40°40' W 074°00'0 0.0
2018-Feb-14 23:30N 40°40' W 074°00'0 0.0
2018-Feb-14 23:00N 40°40' W 074°00'0 0.1
2018-Feb-14 22:30N 40°40' W 074°00'0 0.0
2018-Feb-14 22:00N 40°40' W 074°00'0 0.1
2018-Feb-14 21:30N 40°40' W 074°00'0 0.0
2018-Feb-14 21:00N 40°40' W 074°00'3 5.3
2018-Feb-14 20:30N 40°39' W 074°03'3 5.4
2018-Feb-14 20:00N 40°39' W 074°07'0 0.5
2018-Feb-14 19:29N 40°39' W 074°07'2 4.4
2018-Feb-14 19:00N 40°40' W 074°04'1 2.9
2018-Feb-14 18:30N 40°41' W 074°03'1 1.1
2018-Feb-14 18:00N 40°40' W 074°02'2 3.5
2018-Feb-14 17:30N 40°40' W 074°00'0 0.1
2018-Feb-14 17:00N 40°40' W 074°00'0 0.1
2018-Feb-14 16:30N 40°40' W 074°00'1 1.5
2018-Feb-14 16:00N 40°40' W 074°01'3 6.4
2018-Feb-14 15:30N 40°37' W 074°03'3 6.7
2018-Feb-14 15:00N 40°34' W 073°60'4 8.5
2018-Feb-14 14:30N 40°34' W 073°54'5 9.0
2018-Feb-14 13:58N 40°36' W 073°48'3 6.3
2018-Feb-14 13:30N 40°38' W 073°45'1 1.0
2018-Feb-14 12:57N 40°38' W 073°45'0 0.0
2018-Feb-14 12:12N 40°38' W 073°45'0 0.0
2018-Feb-14 09:54N 40°38' W 073°45'0 0.0
2018-Feb-14 09:28N 40°38' W 073°45'0 0.0
2018-Feb-14 08:59N 40°38' W 073°45'0 0.0
2018-Feb-14 08:29N 40°38' W 073°45'0 0.0
2018-Feb-14 07:52N 40°38' W 073°45'0 0.0
2018-Feb-14 07:30N 40°38' W 073°45'0 0.0
2018-Feb-14 00:13N 40°38' W 073°45'0 0.0
2018-Feb-14 00:00N 40°38' W 073°45'12 2.6
2018-Feb-13 19:12N 40°34' W 074°00'1 3.9
2018-Feb-13 18:54N 40°35' W 074°02'2 4.6
2018-Feb-13 18:30N 40°36' W 074°02'2 3.6
2018-Feb-13 18:00N 40°38' W 074°03'1 1.9
2018-Feb-13 17:30N 40°39' W 074°03'2 3.0
2018-Feb-13 17:00N 40°41' W 074°02'0 0.8
2018-Feb-13 16:30N 40°41' W 074°03'0 0.0
2018-Feb-13 16:00N 40°41' W 074°03'2 4.7
2018-Feb-13 15:30N 40°39' W 074°05'3 5.7
2018-Feb-13 15:00N 40°40' W 074°08'1 2.4
2018-Feb-13 14:30N 40°41' W 074°09'0 0.0
2018-Feb-13 14:00N 40°41' W 074°09'0 0.0
2018-Feb-13 13:30N 40°41' W 074°09'0 0.0
2018-Feb-13 13:00N 40°41' W 074°09'0 0.0
2018-Feb-13 12:30N 40°41' W 074°09'0 0.0
2018-Feb-13 12:00N 40°41' W 074°09'0 0.0
2018-Feb-13 11:29N 40°41' W 074°09'0 0.0
2018-Feb-13 11:00N 40°41' W 074°09'0 0.0
2018-Feb-13 10:30N 40°41' W 074°09'0 0.0
2018-Feb-13 10:00N 40°41' W 074°09'0 0.0
2018-Feb-13 09:30N 40°41' W 074°09'0 0.0
2018-Feb-13 09:00N 40°41' W 074°09'0 0.0
2018-Feb-13 08:30N 40°41' W 074°09'0 0.0
2018-Feb-13 08:00N 40°41' W 074°09'3 5.5
2018-Feb-13 07:29N 40°39' W 074°09'3 5.9
2018-Feb-13 07:00N 40°39' W 074°05'0 0.0
2018-Feb-13 06:30N 40°39' W 074°05'1 2.0
2018-Feb-13 06:00N 40°40' W 074°04'2 3.7
2018-Feb-13 05:30N 40°40' W 074°02'1 2.6
2018-Feb-13 05:00N 40°40' W 074°00'0 0.2
2018-Feb-13 04:30N 40°40' W 074°00'0 0.0
2018-Feb-13 04:00N 40°40' W 074°00'1 2.0
2018-Feb-13 03:30N 40°40' W 074°01'1 2.6
2018-Feb-13 03:00N 40°41' W 074°03'0 0.0
2018-Feb-13 02:30N 40°41' W 074°03'0 0.0
2018-Feb-13 02:00N 40°41' W 074°03'0 0.1
2018-Feb-13 01:30N 40°41' W 074°03'2 3.7
2018-Feb-13 01:00N 40°39' W 074°04'4 6.9
2018-Feb-13 00:29N 40°38' W 074°09'3 5.5
2018-Feb-13 00:00N 40°38' W 074°12'6 0.4
2018-Feb-12 10:46N 40°32' W 074°15'1 3.1
2018-Feb-12 10:28N 40°33' W 074°15'4 6.4
2018-Feb-12 09:52N 40°36' W 074°12'3 6.8
2018-Feb-12 09:30N 40°39' W 074°11'4 7.8
2018-Feb-12 09:00N 40°39' W 074°06'3 6.5
2018-Feb-12 08:30N 40°39' W 074°01'1 2.3
2018-Feb-12 08:00N 40°40' W 074°00'0 0.1
2018-Feb-12 07:30N 40°40' W 074°00'0 0.0
2018-Feb-12 07:00N 40°40' W 074°00'0 0.0
2018-Feb-12 06:30N 40°40' W 074°00'0 0.0
2018-Feb-12 06:00N 40°40' W 074°00'0 0.0
2018-Feb-12 05:30N 40°40' W 074°00'0 0.0
2018-Feb-12 04:59N 40°40' W 074°00'0 0.0
2018-Feb-12 04:30N 40°40' W 074°00'0 0.0
2018-Feb-12 04:00N 40°40' W 074°00'0 0.0
2018-Feb-12 03:30N 40°40' W 074°00'0 0.0
2018-Feb-12 03:00N 40°40' W 074°00'0 0.0
2018-Feb-12 02:30N 40°40' W 074°00'0 0.0
2018-Feb-12 02:00N 40°40' W 074°00'0 0.0
2018-Feb-12 01:30N 40°40' W 074°00'0 0.0
2018-Feb-12 00:59N 40°40' W 074°00'0 0.0
2018-Feb-12 00:30N 40°40' W 074°00'0 0.0
2018-Feb-12 00:00N 40°40' W 074°00'0 0.0
2018-Feb-11 23:30N 40°40' W 074°00'0 0.0
2018-Feb-11 23:00N 40°40' W 074°00'0 0.0
2018-Feb-11 22:30N 40°40' W 074°00'0 0.0
2018-Feb-11 22:00N 40°40' W 074°00'0 0.0
2018-Feb-11 21:30N 40°40' W 074°00'0 0.0
2018-Feb-11 21:00N 40°40' W 074°00'0 0.0
2018-Feb-11 20:30N 40°40' W 074°00'0 0.1
2018-Feb-11 20:00N 40°40' W 074°00'3 6.1
2018-Feb-11 19:30N 40°39' W 074°04'4 8.0
2018-Feb-11 19:00N 40°39' W 074°09'3 6.6
2018-Feb-11 18:30N 40°36' W 074°12'4 7.3
2018-Feb-11 17:55N 40°33' W 074°15'0 0.2
2018-Feb-11 17:27N 40°33' W 074°15'4 8.0
2018-Feb-11 17:00N 40°36' W 074°12'4 7.8
2018-Feb-11 16:30N 40°39' W 074°10'1 1.4
2018-Feb-11 16:00N 40°39' W 074°09'3 5.1
2018-Feb-11 15:28N 40°38' W 074°12'4 8.1
2018-Feb-11 15:00N 40°34' W 074°13'2 0.1
2018-Feb-11 00:07N 40°33' W 074°15'0 0.0
2018-Feb-10 23:56N 40°33' W 074°15'0 0.8
2018-Feb-10 23:23N 40°33' W 074°15'0 0.0
2018-Feb-10 23:00N 40°33' W 074°15'1 2.1
2018-Feb-10 22:26N 40°33' W 074°14'3 7.5
2018-Feb-10 22:00N 40°36' W 074°12'4 7.0
2018-Feb-10 21:30N 40°39' W 074°09'1 2.2
2018-Feb-10 20:59N 40°39' W 074°07'0 0.0
2018-Feb-10 20:29N 40°39' W 074°07'0 0.0
2018-Feb-10 19:58N 40°39' W 074°07'2 3.4
2018-Feb-10 19:30N 40°39' W 074°09'2 3.6
2018-Feb-10 19:00N 40°38' W 074°12'0 0.3
2018-Feb-10 18:30N 40°38' W 074°12'5 2.7
2018-Feb-10 16:34N 40°33' W 074°14'3 8.6
2018-Feb-10 16:15N 40°36' W 074°12'2 9.8
2018-Feb-10 15:59N 40°38' W 074°12'4 8.8
2018-Feb-10 15:30N 40°39' W 074°06'1 2.7
2018-Feb-10 15:00N 40°39' W 074°04'1 1.7
2018-Feb-10 14:30N 40°39' W 074°06'4 8.6
2018-Feb-10 14:00N 40°40' W 074°00'0 0.0
2018-Feb-10 13:30N 40°40' W 074°00'0 0.0
2018-Feb-10 13:00N 40°40' W 074°00'0 0.0
2018-Feb-10 12:30N 40°40' W 074°00'0 0.0
2018-Feb-10 12:00N 40°40' W 074°00'0 0.0
2018-Feb-10 11:30N 40°40' W 074°00'0 0.0
2018-Feb-10 11:00N 40°40' W 074°00'0 0.0
2018-Feb-10 10:30N 40°40' W 074°00'0 0.0
2018-Feb-10 10:00N 40°40' W 074°00'0 0.0
2018-Feb-10 09:30N 40°40' W 074°00'2 4.2
2018-Feb-10 09:00N 40°39' W 074°03'5 9.0
2018-Feb-10 08:29N 40°39' W 074°09'4 7.0
2018-Feb-10 07:59N 40°36' W 074°12'4 8.0
2018-Feb-10 07:28N 40°33' W 074°15'1 0.3
2018-Feb-10 04:43N 40°33' W 074°14'2 8.1
2018-Feb-10 04:25N 40°35' W 074°12'4 9.0
2018-Feb-10 04:00N 40°39' W 074°11'4 8.2
2018-Feb-10 03:30N 40°39' W 074°05'1 2.7
2018-Feb-10 03:00N 40°39' W 074°04'1 1.5
2018-Feb-10 02:30N 40°39' W 074°03'2 4.5
2018-Feb-10 02:00N 40°40' W 074°00'0 0.0
2018-Feb-10 01:30N 40°40' W 074°00'0 0.0
2018-Feb-10 01:00N 40°40' W 074°00'0 0.0
2018-Feb-10 00:30N 40°40' W 074°00'0 0.0
2018-Feb-10 00:00N 40°40' W 074°00'0 0.0
2018-Feb-09 23:30N 40°40' W 074°00'0 0.0
2018-Feb-09 23:00N 40°40' W 074°00'0 0.0
2018-Feb-09 22:46N 40°40' W 074°00'0 0.0
2018-Feb-09 19:30N 40°40' W 074°00'0 0.0
2018-Feb-09 18:00N 40°40' W 074°00'0 0.0
2018-Feb-09 17:30N 40°40' W 074°00'2 1.3
2018-Feb-09 16:00N 40°39' W 074°02'3 6.7
2018-Feb-09 15:30N 40°35' W 074°02'7 6.6
2018-Feb-09 14:30N 40°34' W 073°53'4 7.3
2018-Feb-09 14:00N 40°36' W 073°49'4 0.6
2018-Feb-09 08:00N 40°38' W 073°45'  
Track history (hours):
 
Tides and Currents Weather Stations Pressure Air Temp Water Temp Dewpoint Dewpoint Depression Visibility Wind Speed Wind Dir Waves Ship Positions

St. Andrews

Owner: Harley Marine Services, Inc, Seattle, WA. More information available from US FCC via Universal Licensing System and Coast Guard Vessel Documentation Center.

Last reported at 2018-Feb-19 01:30 UTC. Time now 2018-Feb-19 01:54 UTC.
Position N 40°40' W 074°09'.

Length 24 m.

Type: Tug. MMSI: 366998820.

Date/timePositionNaut miles runAvg speedWind from/ knotsBaromVisibWave heightAir tempDewpointWater temp
2018-Feb-19 01:30N 40°40' W 074°09'0 0.0
2018-Feb-19 01:00N 40°40' W 074°09'0 0.0
2018-Feb-19 00:30N 40°40' W 074°09'0 0.0
2018-Feb-19 00:00N 40°40' W 074°09'0 0.0
2018-Feb-18 23:30N 40°40' W 074°09'0 0.0
2018-Feb-18 23:00N 40°40' W 074°09'0 0.0
2018-Feb-18 22:30N 40°40' W 074°09'1 2.7
2018-Feb-18 22:00N 40°39' W 074°08'3 6.7
2018-Feb-18 21:30N 40°40' W 074°04'1 2.3
2018-Feb-18 21:00N 40°41' W 074°03'4 8.2
2018-Feb-18 20:29N 40°39' W 074°08'3 6.5
2018-Feb-18 20:00N 40°38' W 074°12'0 0.0
2018-Feb-18 19:30N 40°38' W 074°12'0 0.0
2018-Feb-18 19:00N 40°38' W 074°12'2 3.7
2018-Feb-18 18:30N 40°37' W 074°12'1 1.2
2018-Feb-18 18:00N 40°36' W 074°12'2 3.2
2018-Feb-18 17:27N 40°38' W 074°12'0 0.0
2018-Feb-18 17:00N 40°38' W 074°12'0 0.2
2018-Feb-18 16:25N 40°38' W 074°12'2 5.3
2018-Feb-18 16:00N 40°39' W 074°09'5 9.0
2018-Feb-18 15:30N 40°40' W 074°04'2 4.4
2018-Feb-18 15:00N 40°40' W 074°01'1 1.3
2018-Feb-18 14:30N 40°40' W 074°00'0 0.0
2018-Feb-18 14:00N 40°40' W 074°00'0 0.0
2018-Feb-18 13:30N 40°40' W 074°00'0 0.0
2018-Feb-18 13:00N 40°40' W 074°00'0 0.0
2018-Feb-18 12:30N 40°40' W 074°00'0 0.1
2018-Feb-18 12:00N 40°40' W 074°00'0 0.0
2018-Feb-18 11:30N 40°40' W 074°00'0 0.0
2018-Feb-18 10:59N 40°40' W 074°00'0 0.0
2018-Feb-18 10:30N 40°40' W 074°00'0 0.0
2018-Feb-18 10:00N 40°40' W 074°00'0 0.0
2018-Feb-18 09:30N 40°40' W 074°00'0 0.0
2018-Feb-18 09:00N 40°40' W 074°00'0 0.0
2018-Feb-18 08:30N 40°40' W 074°00'0 0.0
2018-Feb-18 08:00N 40°40' W 074°00'0 0.0
2018-Feb-18 07:30N 40°40' W 074°00'0 0.0
2018-Feb-18 07:00N 40°40' W 074°00'0 0.0
2018-Feb-18 06:30N 40°40' W 074°00'0 0.0
2018-Feb-18 06:00N 40°40' W 074°00'0 0.0
2018-Feb-18 05:30N 40°40' W 074°00'0 0.0
2018-Feb-18 05:00N 40°40' W 074°00'0 0.0
2018-Feb-18 04:28N 40°40' W 074°00'0 0.0
2018-Feb-18 04:00N 40°40' W 074°00'0 0.0
2018-Feb-18 03:30N 40°40' W 074°00'0 0.0
2018-Feb-18 03:00N 40°40' W 074°00'0 0.0
2018-Feb-18 02:30N 40°40' W 074°00'0 0.0
2018-Feb-18 02:00N 40°40' W 074°00'0 0.0
2018-Feb-18 01:30N 40°40' W 074°00'0 0.0
2018-Feb-18 01:00N 40°40' W 074°00'0 0.0
2018-Feb-18 00:30N 40°40' W 074°00'1 1.0
2018-Feb-18 00:00N 40°40' W 074°01'4 7.0
2018-Feb-17 23:30N 40°37' W 074°03'4 7.6
2018-Feb-17 23:00N 40°34' W 073°59'3 6.5
2018-Feb-17 22:29N 40°34' W 073°54'3 6.4
2018-Feb-17 22:00N 40°35' W 073°51'4 6.6
2018-Feb-17 21:28N 40°37' W 073°47'10 1.1
2018-Feb-17 11:59N 40°34' W 073°59'3 5.2
2018-Feb-17 11:30N 40°35' W 074°02'3 5.6
2018-Feb-17 11:00N 40°38' W 074°03'3 5.4
2018-Feb-17 10:30N 40°41' W 074°03'0 0.0
2018-Feb-17 10:00N 40°41' W 074°03'0 0.0
2018-Feb-17 09:30N 40°41' W 074°03'0 0.0
2018-Feb-17 09:00N 40°41' W 074°03'0 0.0
2018-Feb-17 08:30N 40°41' W 074°03'0 0.0
2018-Feb-17 08:00N 40°41' W 074°03'0 0.0
2018-Feb-17 07:30N 40°41' W 074°03'0 0.0
2018-Feb-17 07:00N 40°41' W 074°03'0 0.0
2018-Feb-17 06:30N 40°41' W 074°03'0 0.0
2018-Feb-17 06:00N 40°41' W 074°03'0 0.0
2018-Feb-17 05:30N 40°41' W 074°03'0 0.0
2018-Feb-17 05:00N 40°41' W 074°03'0 0.0
2018-Feb-17 04:30N 40°41' W 074°03'0 0.0
2018-Feb-17 04:00N 40°41' W 074°03'0 0.1
2018-Feb-17 03:30N 40°41' W 074°03'0 0.0
2018-Feb-17 03:00N 40°41' W 074°03'0 0.0
2018-Feb-17 02:30N 40°41' W 074°03'0 0.0
2018-Feb-17 02:00N 40°41' W 074°03'0 0.0
2018-Feb-17 01:30N 40°41' W 074°03'0 0.0
2018-Feb-17 01:00N 40°41' W 074°03'0 0.0
2018-Feb-17 00:30N 40°41' W 074°03'0 0.6
2018-Feb-17 00:00N 40°41' W 074°03'2 4.4
2018-Feb-16 23:30N 40°39' W 074°05'2 4.5
2018-Feb-16 23:00N 40°39' W 074°08'1 2.8
2018-Feb-16 22:30N 40°40' W 074°08'3 5.3
2018-Feb-16 22:00N 40°42' W 074°07'0 0.2
2018-Feb-16 21:30N 40°42' W 074°07'0 0.0
2018-Feb-16 21:00N 40°42' W 074°07'0 0.0
2018-Feb-16 20:30N 40°42' W 074°07'0 0.0
2018-Feb-16 20:00N 40°42' W 074°07'0 0.0
2018-Feb-16 19:30N 40°42' W 074°07'0 0.0
2018-Feb-16 19:00N 40°42' W 074°07'0 0.0
2018-Feb-16 18:30N 40°42' W 074°07'0 0.0
2018-Feb-16 18:00N 40°42' W 074°07'0 0.0
2018-Feb-16 17:30N 40°42' W 074°07'0 0.0
2018-Feb-16 17:00N 40°42' W 074°07'0 0.0
2018-Feb-16 16:30N 40°42' W 074°07'0 0.0
2018-Feb-16 16:00N 40°42' W 074°07'0 0.0
2018-Feb-16 15:30N 40°42' W 074°07'0 0.0
2018-Feb-16 15:00N 40°42' W 074°07'0 0.0
2018-Feb-16 14:30N 40°42' W 074°07'0 0.0
2018-Feb-16 13:58N 40°42' W 074°07'0 0.1
2018-Feb-16 13:30N 40°42' W 074°07'0 0.0
2018-Feb-16 13:00N 40°42' W 074°07'2 3.9
2018-Feb-16 12:30N 40°41' W 074°08'2 4.2
2018-Feb-16 12:00N 40°39' W 074°06'2 4.0
2018-Feb-16 11:30N 40°39' W 074°04'3 5.6
2018-Feb-16 10:59N 40°40' W 074°00'0 0.0
2018-Feb-16 10:30N 40°40' W 074°00'1 1.1
2018-Feb-16 10:00N 40°40' W 074°01'3 6.0
2018-Feb-16 09:30N 40°39' W 074°05'1 1.9
2018-Feb-16 09:00N 40°39' W 074°06'0 0.0
2018-Feb-16 08:30N 40°39' W 074°06'0 0.0
2018-Feb-16 08:00N 40°39' W 074°06'0 0.0
2018-Feb-16 07:30N 40°39' W 074°06'0 0.0
2018-Feb-16 07:00N 40°39' W 074°06'0 0.0
2018-Feb-16 06:29N 40°39' W 074°06'0 0.0
2018-Feb-16 05:59N 40°39' W 074°06'0 0.0
2018-Feb-16 05:30N 40°39' W 074°06'0 0.0
2018-Feb-16 05:00N 40°39' W 074°06'0 0.0
2018-Feb-16 04:30N 40°39' W 074°06'0 0.0
2018-Feb-16 04:00N 40°39' W 074°06'0 0.0
2018-Feb-16 03:30N 40°39' W 074°06'0 0.0
2018-Feb-16 03:00N 40°39' W 074°06'0 0.0
2018-Feb-16 02:30N 40°39' W 074°06'0 0.0
2018-Feb-16 02:00N 40°39' W 074°06'3 6.3
2018-Feb-16 01:30N 40°41' W 074°03'0 0.3
2018-Feb-16 01:00N 40°41' W 074°03'0 0.0
2018-Feb-16 00:30N 40°41' W 074°03'0 0.1
2018-Feb-16 00:00N 40°41' W 074°03'0 0.1
2018-Feb-15 23:30N 40°41' W 074°03'2 3.7
2018-Feb-15 23:00N 40°40' W 074°01'1 1.2
2018-Feb-15 22:30N 40°40' W 074°00'0 0.0
2018-Feb-15 22:00N 40°40' W 074°00'0 0.0
2018-Feb-15 21:30N 40°40' W 074°00'0 0.0
2018-Feb-15 21:00N 40°40' W 074°00'0 0.0
2018-Feb-15 20:30N 40°40' W 074°00'0 0.0
2018-Feb-15 20:00N 40°40' W 074°00'0 0.0
2018-Feb-15 19:30N 40°40' W 074°00'0 0.0
2018-Feb-15 19:00N 40°40' W 074°00'0 0.0
2018-Feb-15 18:30N 40°40' W 074°00'0 0.0
2018-Feb-15 18:00N 40°40' W 074°00'0 0.0
2018-Feb-15 17:30N 40°40' W 074°00'0 0.0
2018-Feb-15 17:00N 40°40' W 074°00'0 0.0
2018-Feb-15 16:30N 40°40' W 074°00'0 0.0
2018-Feb-15 16:00N 40°40' W 074°00'2 3.2
2018-Feb-15 15:30N 40°41' W 074°02'2 3.2
2018-Feb-15 15:00N 40°40' W 074°00'0 0.0
2018-Feb-15 14:30N 40°40' W 074°00'2 4.4
2018-Feb-15 14:00N 40°41' W 074°03'0 0.2
2018-Feb-15 13:30N 40°41' W 074°03'0 0.0
2018-Feb-15 13:00N 40°41' W 074°03'0 0.0
2018-Feb-15 12:30N 40°41' W 074°03'1 2.8
2018-Feb-15 12:00N 40°40' W 074°04'3 5.4
2018-Feb-15 11:30N 40°39' W 074°07'0 0.0
2018-Feb-15 11:00N 40°39' W 074°07'0 0.0
2018-Feb-15 10:28N 40°39' W 074°07'0 0.0
2018-Feb-15 10:00N 40°39' W 074°07'3 5.0
2018-Feb-15 09:30N 40°39' W 074°10'1 2.4
2018-Feb-15 09:00N 40°38' W 074°12'0 0.0
2018-Feb-15 08:30N 40°38' W 074°12'1 2.1
2018-Feb-15 08:00N 40°39' W 074°11'4 8.7
2018-Feb-15 07:30N 40°39' W 074°05'4 7.4
2018-Feb-15 07:00N 40°40' W 074°00'0 0.3
2018-Feb-15 06:30N 40°40' W 074°00'0 0.1
2018-Feb-15 06:00N 40°40' W 074°00'0 0.0
2018-Feb-15 05:30N 40°40' W 074°00'0 0.0
2018-Feb-15 05:00N 40°40' W 074°00'0 0.0
2018-Feb-15 04:30N 40°40' W 074°00'0 0.0
2018-Feb-15 04:00N 40°40' W 074°00'0 0.0
2018-Feb-15 03:30N 40°40' W 074°00'0 0.0
2018-Feb-15 03:00N 40°40' W 074°00'0 0.0
2018-Feb-15 02:30N 40°40' W 074°00'0 0.0
2018-Feb-15 02:00N 40°40' W 074°00'0 0.0
2018-Feb-15 01:30N 40°40' W 074°00'0 0.0
2018-Feb-15 01:00N 40°40' W 074°00'0 0.0
2018-Feb-15 00:30N 40°40' W 074°00'0 0.0
2018-Feb-15 00:00N 40°40' W 074°00'0 0.0
2018-Feb-14 23:30N 40°40' W 074°00'0 0.0
2018-Feb-14 23:00N 40°40' W 074°00'0 0.1
2018-Feb-14 22:30N 40°40' W 074°00'0 0.0
2018-Feb-14 22:00N 40°40' W 074°00'0 0.1
2018-Feb-14 21:30N 40°40' W 074°00'0 0.0
2018-Feb-14 21:00N 40°40' W 074°00'3 5.3
2018-Feb-14 20:30N 40°39' W 074°03'3 5.4
2018-Feb-14 20:00N 40°39' W 074°07'0 0.5
2018-Feb-14 19:29N 40°39' W 074°07'2 4.4
2018-Feb-14 19:00N 40°40' W 074°04'1 2.9
2018-Feb-14 18:30N 40°41' W 074°03'1 1.1
2018-Feb-14 18:00N 40°40' W 074°02'2 3.5
2018-Feb-14 17:30N 40°40' W 074°00'0 0.1
2018-Feb-14 17:00N 40°40' W 074°00'0 0.1
2018-Feb-14 16:30N 40°40' W 074°00'1 1.5
2018-Feb-14 16:00N 40°40' W 074°01'3 6.4
2018-Feb-14 15:30N 40°37' W 074°03'3 6.7
2018-Feb-14 15:00N 40°34' W 073°60'4 8.5
2018-Feb-14 14:30N 40°34' W 073°54'5 9.0
2018-Feb-14 13:58N 40°36' W 073°48'3 6.3
2018-Feb-14 13:30N 40°38' W 073°45'1 1.0
2018-Feb-14 12:57N 40°38' W 073°45'0 0.0
2018-Feb-14 12:12N 40°38' W 073°45'0 0.0
2018-Feb-14 09:54N 40°38' W 073°45'0 0.0
2018-Feb-14 09:28N 40°38' W 073°45'0 0.0
2018-Feb-14 08:59N 40°38' W 073°45'0 0.0
2018-Feb-14 08:29N 40°38' W 073°45'0 0.0
2018-Feb-14 07:52N 40°38' W 073°45'0 0.0
2018-Feb-14 07:30N 40°38' W 073°45'0 0.0
2018-Feb-14 00:13N 40°38' W 073°45'0 0.0
2018-Feb-14 00:00N 40°38' W 073°45'12 2.6
2018-Feb-13 19:12N 40°34' W 074°00'1 3.9
2018-Feb-13 18:54N 40°35' W 074°02'2 4.6
2018-Feb-13 18:30N 40°36' W 074°02'2 3.6
2018-Feb-13 18:00N 40°38' W 074°03'1 1.9
2018-Feb-13 17:30N 40°39' W 074°03'2 3.0
2018-Feb-13 17:00N 40°41' W 074°02'0 0.8
2018-Feb-13 16:30N 40°41' W 074°03'0 0.0
2018-Feb-13 16:00N 40°41' W 074°03'2 4.7
2018-Feb-13 15:30N 40°39' W 074°05'3 5.7
2018-Feb-13 15:00N 40°40' W 074°08'1 2.4
2018-Feb-13 14:30N 40°41' W 074°09'0 0.0
2018-Feb-13 14:00N 40°41' W 074°09'0 0.0
2018-Feb-13 13:30N 40°41' W 074°09'0 0.0
2018-Feb-13 13:00N 40°41' W 074°09'0 0.0
2018-Feb-13 12:30N 40°41' W 074°09'0 0.0
2018-Feb-13 12:00N 40°41' W 074°09'0 0.0
2018-Feb-13 11:29N 40°41' W 074°09'0 0.0
2018-Feb-13 11:00N 40°41' W 074°09'0 0.0
2018-Feb-13 10:30N 40°41' W 074°09'0 0.0
2018-Feb-13 10:00N 40°41' W 074°09'0 0.0
2018-Feb-13 09:30N 40°41' W 074°09'0 0.0
2018-Feb-13 09:00N 40°41' W 074°09'0 0.0
2018-Feb-13 08:30N 40°41' W 074°09'0 0.0
2018-Feb-13 08:00N 40°41' W 074°09'3 5.5
2018-Feb-13 07:29N 40°39' W 074°09'3 5.9
2018-Feb-13 07:00N 40°39' W 074°05'0 0.0
2018-Feb-13 06:30N 40°39' W 074°05'1 2.0
2018-Feb-13 06:00N 40°40' W 074°04'2 3.7
2018-Feb-13 05:30N 40°40' W 074°02'1 2.6
2018-Feb-13 05:00N 40°40' W 074°00'0 0.2
2018-Feb-13 04:30N 40°40' W 074°00'0 0.0
2018-Feb-13 04:00N 40°40' W 074°00'1 2.0
2018-Feb-13 03:30N 40°40' W 074°01'1 2.6
2018-Feb-13 03:00N 40°41' W 074°03'0 0.0
2018-Feb-13 02:30N 40°41' W 074°03'0 0.0
2018-Feb-13 02:00N 40°41' W 074°03'0 0.1
2018-Feb-13 01:30N 40°41' W 074°03'2 3.7
2018-Feb-13 01:00N 40°39' W 074°04'4 6.9
2018-Feb-13 00:29N 40°38' W 074°09'3 5.5
2018-Feb-13 00:00N 40°38' W 074°12'6 0.4
2018-Feb-12 10:46N 40°32' W 074°15'1 3.1
2018-Feb-12 10:28N 40°33' W 074°15'4 6.4
2018-Feb-12 09:52N 40°36' W 074°12'3 6.8
2018-Feb-12 09:30N 40°39' W 074°11'4 7.8
2018-Feb-12 09:00N 40°39' W 074°06'3 6.5
2018-Feb-12 08:30N 40°39' W 074°01'1 2.3
2018-Feb-12 08:00N 40°40' W 074°00'0 0.1
2018-Feb-12 07:30N 40°40' W 074°00'0 0.0
2018-Feb-12 07:00N 40°40' W 074°00'0 0.0
2018-Feb-12 06:30N 40°40' W 074°00'0 0.0
2018-Feb-12 06:00N 40°40' W 074°00'0 0.0
2018-Feb-12 05:30N 40°40' W 074°00'0 0.0
2018-Feb-12 04:59N 40°40' W 074°00'0 0.0
2018-Feb-12 04:30N 40°40' W 074°00'0 0.0
2018-Feb-12 04:00N 40°40' W 074°00'0 0.0
2018-Feb-12 03:30N 40°40' W 074°00'0 0.0
2018-Feb-12 03:00N 40°40' W 074°00'0 0.0
2018-Feb-12 02:30N 40°40' W 074°00'0 0.0
2018-Feb-12 02:00N 40°40' W 074°00'0 0.0
2018-Feb-12 01:30N 40°40' W 074°00'0 0.0
2018-Feb-12 00:59N 40°40' W 074°00'0 0.0
2018-Feb-12 00:30N 40°40' W 074°00'0 0.0
2018-Feb-12 00:00N 40°40' W 074°00'0 0.0
2018-Feb-11 23:30N 40°40' W 074°00'0 0.0
2018-Feb-11 23:00N 40°40' W 074°00'0 0.0
2018-Feb-11 22:30N 40°40' W 074°00'0 0.0
2018-Feb-11 22:00N 40°40' W 074°00'0 0.0
2018-Feb-11 21:30N 40°40' W 074°00'0 0.0
2018-Feb-11 21:00N 40°40' W 074°00'0 0.0
2018-Feb-11 20:30N 40°40' W 074°00'0 0.1
2018-Feb-11 20:00N 40°40' W 074°00'3 6.1
2018-Feb-11 19:30N 40°39' W 074°04'4 8.0
2018-Feb-11 19:00N 40°39' W 074°09'3 6.6
2018-Feb-11 18:30N 40°36' W 074°12'4 7.3
2018-Feb-11 17:55N 40°33' W 074°15'0 0.2
2018-Feb-11 17:27N 40°33' W 074°15'4 8.0
2018-Feb-11 17:00N 40°36' W 074°12'4 7.8
2018-Feb-11 16:30N 40°39' W 074°10'1 1.4
2018-Feb-11 16:00N 40°39' W 074°09'3 5.1
2018-Feb-11 15:28N 40°38' W 074°12'4 8.1
2018-Feb-11 15:00N 40°34' W 074°13'2 0.1
2018-Feb-11 00:07N 40°33' W 074°15'0 0.0
2018-Feb-10 23:56N 40°33' W 074°15'0 0.8
2018-Feb-10 23:23N 40°33' W 074°15'0 0.0
2018-Feb-10 23:00N 40°33' W 074°15'1 2.1
2018-Feb-10 22:26N 40°33' W 074°14'3 7.5
2018-Feb-10 22:00N 40°36' W 074°12'4 7.0
2018-Feb-10 21:30N 40°39' W 074°09'1 2.2
2018-Feb-10 20:59N 40°39' W 074°07'0 0.0
2018-Feb-10 20:29N 40°39' W 074°07'0 0.0
2018-Feb-10 19:58N 40°39' W 074°07'2 3.4
2018-Feb-10 19:30N 40°39' W 074°09'2 3.6
2018-Feb-10 19:00N 40°38' W 074°12'0 0.3
2018-Feb-10 18:30N 40°38' W 074°12'5 2.7
2018-Feb-10 16:34N 40°33' W 074°14'3 8.6
2018-Feb-10 16:15N 40°36' W 074°12'2 9.8
2018-Feb-10 15:59N 40°38' W 074°12'4 8.8
2018-Feb-10 15:30N 40°39' W 074°06'1 2.7
2018-Feb-10 15:00N 40°39' W 074°04'1 1.7
2018-Feb-10 14:30N 40°39' W 074°06'4 8.6
2018-Feb-10 14:00N 40°40' W 074°00'0 0.0
2018-Feb-10 13:30N 40°40' W 074°00'0 0.0
2018-Feb-10 13:00N 40°40' W 074°00'0 0.0
2018-Feb-10 12:30N 40°40' W 074°00'0 0.0
2018-Feb-10 12:00N 40°40' W 074°00'0 0.0
2018-Feb-10 11:30N 40°40' W 074°00'0 0.0
2018-Feb-10 11:00N 40°40' W 074°00'0 0.0
2018-Feb-10 10:30N 40°40' W 074°00'0 0.0
2018-Feb-10 10:00N 40°40' W 074°00'0 0.0
2018-Feb-10 09:30N 40°40' W 074°00'2 4.2
2018-Feb-10 09:00N 40°39' W 074°03'5 9.0
2018-Feb-10 08:29N 40°39' W 074°09'4 7.0
2018-Feb-10 07:59N 40°36' W 074°12'4 8.0
2018-Feb-10 07:28N 40°33' W 074°15'1 0.3
2018-Feb-10 04:43N 40°33' W 074°14'2 8.1
2018-Feb-10 04:25N 40°35' W 074°12'4 9.0
2018-Feb-10 04:00N 40°39' W 074°11'4 8.2
2018-Feb-10 03:30N 40°39' W 074°05'1 2.7
2018-Feb-10 03:00N 40°39' W 074°04'1 1.5
2018-Feb-10 02:30N 40°39' W 074°03'2 4.5
2018-Feb-10 02:00N 40°40' W 074°00'0 0.0
2018-Feb-10 01:30N 40°40' W 074°00'0 0.0
2018-Feb-10 01:00N 40°40' W 074°00'0 0.0
2018-Feb-10 00:30N 40°40' W 074°00'0 0.0
2018-Feb-10 00:00N 40°40' W 074°00'0 0.0
2018-Feb-09 23:30N 40°40' W 074°00'0 0.0
2018-Feb-09 23:00N 40°40' W 074°00'0 0.0
2018-Feb-09 22:46N 40°40' W 074°00'0 0.0
2018-Feb-09 19:30N 40°40' W 074°00'0 0.0
2018-Feb-09 18:00N 40°40' W 074°00'0 0.0
2018-Feb-09 17:30N 40°40' W 074°00'2 1.3
2018-Feb-09 16:00N 40°39' W 074°02'3 6.7
2018-Feb-09 15:30N 40°35' W 074°02'7 6.6
2018-Feb-09 14:30N 40°34' W 073°53'4 7.3
2018-Feb-09 14:00N 40°36' W 073°49'4 0.6
2018-Feb-09 08:00N 40°38' W 073°45'  

Dump ship's entire track history